createdAt,value
2022-10-11T00:02:36.000Z,12.94
2022-10-11T00:07:35.000Z,13.59
2022-10-11T00:12:35.000Z,12.04
2022-10-11T00:17:35.000Z,11.43
2022-10-11T00:22:35.000Z,11.7
2022-10-11T00:27:34.000Z,12.57
2022-10-11T00:32:35.000Z,11.9
2022-10-11T00:37:35.000Z,10.73
2022-10-11T00:42:35.000Z,10.32
2022-10-11T00:47:34.000Z,11.67
2022-10-11T00:52:35.000Z,11.05
2022-10-11T00:57:35.000Z,10.45
2022-10-11T01:02:35.000Z,11.29
2022-10-11T01:07:35.000Z,10.85
2022-10-11T01:12:35.000Z,11.26
2022-10-11T01:17:35.000Z,12.26
2022-10-11T01:22:34.000Z,12.26
2022-10-11T01:27:35.000Z,9.92
2022-10-11T01:32:34.000Z,10.27
2022-10-11T01:37:35.000Z,9.95
2022-10-11T01:42:35.000Z,9.2
2022-10-11T01:47:34.000Z,11.21
2022-10-11T01:52:34.000Z,10.63
2022-10-11T01:57:34.000Z,13.62
2022-10-11T02:02:35.000Z,10.48
2022-10-11T02:07:34.000Z,9.23
2022-10-11T02:12:35.000Z,9.28
2022-10-11T02:17:35.000Z,9.51
2022-10-11T02:22:35.000Z,10.74
2022-10-11T02:27:34.000Z,11.6
2022-10-11T02:32:35.000Z,10.93
2022-10-11T02:42:35.000Z,10.04
2022-10-11T02:47:35.000Z,9.76
2022-10-11T02:52:35.000Z,10.93
2022-10-11T02:57:35.000Z,11.4
2022-10-11T03:02:35.000Z,11.77
2022-10-11T03:07:34.000Z,15.2
2022-10-11T03:12:35.000Z,10.48
2022-10-11T03:17:46.000Z,12.35
2022-10-11T03:22:35.000Z,11.81
2022-10-11T03:27:35.000Z,11.29
2022-10-11T03:32:34.000Z,9.87
2022-10-11T03:37:34.000Z,11.23
2022-10-11T03:42:35.000Z,10.27
2022-10-11T03:47:34.000Z,9.64
2022-10-11T03:52:34.000Z,9.64
2022-10-11T03:57:34.000Z,11.63
2022-10-11T04:02:35.000Z,13.64
2022-10-11T04:07:35.000Z,12.22
2022-10-11T04:12:35.000Z,13.45
2022-10-11T04:17:34.000Z,14.83
2022-10-11T04:22:34.000Z,11.8
2022-10-11T04:27:35.000Z,16.48
2022-10-11T04:32:35.000Z,15.65
2022-10-11T04:42:34.000Z,10.57
2022-10-11T04:47:35.000Z,17.38
2022-10-11T04:52:36.000Z,16.32
2022-10-11T04:57:34.000Z,14.42
2022-10-11T05:02:35.000Z,18.58
2022-10-11T05:07:35.000Z,13.06
2022-10-11T05:12:35.000Z,13.06
2022-10-11T05:17:35.000Z,16.78
2022-10-11T05:22:34.000Z,13.97
2022-10-11T05:27:35.000Z,12.92
2022-10-11T05:32:38.000Z,12.55
2022-10-11T05:37:34.000Z,13.22
2022-10-11T05:47:34.000Z,16.05
2022-10-11T05:52:35.000Z,14.4
2022-10-11T05:57:35.000Z,15.45
2022-10-11T06:02:34.000Z,15.24
2022-10-11T06:07:34.000Z,15.07
2022-10-11T06:12:34.000Z,15.93
2022-10-11T06:17:35.000Z,15.06
2022-10-11T06:22:34.000Z,15.06
2022-10-11T06:27:34.000Z,13.5
2022-10-11T06:32:35.000Z,16.36
2022-10-11T06:37:34.000Z,16.29
2022-10-11T06:42:35.000Z,12.67
2022-10-11T06:47:35.000Z,13.94
2022-10-11T06:52:35.000Z,10.7
2022-10-11T06:57:35.000Z,9.58
2022-10-11T07:02:35.000Z,8.86
2022-10-11T07:07:34.000Z,8.07
2022-10-11T07:12:35.000Z,7.59
2022-10-11T07:17:35.000Z,7.57
2022-10-11T07:22:35.000Z,7.39
2022-10-11T07:27:34.000Z,7.31
2022-10-11T07:32:35.000Z,8.36
2022-10-11T07:37:34.000Z,8.36
2022-10-11T07:42:34.000Z,7.27
2022-10-11T07:47:34.000Z,7.42
2022-10-11T07:52:35.000Z,6.47
2022-10-11T07:57:34.000Z,5.19
2022-10-11T08:02:35.000Z,4.41
2022-10-11T08:07:34.000Z,4.95
2022-10-11T08:12:35.000Z,4.61
2022-10-11T08:17:35.000Z,4.53
2022-10-11T08:27:34.000Z,6.69
2022-10-11T08:32:34.000Z,5.6
2022-10-11T08:37:35.000Z,9.83
2022-10-11T08:42:34.000Z,11.96
2022-10-11T08:47:35.000Z,19.09
2022-10-11T08:52:34.000Z,5.65
2022-10-11T08:57:35.000Z,5.65
2022-10-11T09:02:35.000Z,5.38
2022-10-11T09:07:35.000Z,5.94
2022-10-11T09:12:41.000Z,5.52
2022-10-11T09:17:34.000Z,5.52
2022-10-11T09:22:40.000Z,4.71
2022-10-11T09:28:07.000Z,5.53
2022-10-11T09:32:34.000Z,3.28
2022-10-11T09:37:35.000Z,4.38
2022-10-11T09:42:34.000Z,21.51
2022-10-11T09:47:35.000Z,6.33
2022-10-11T09:52:35.000Z,4.38
2022-10-11T09:57:34.000Z,3.54
2022-10-11T10:02:34.000Z,3.73
2022-10-11T10:07:35.000Z,5.14
2022-10-11T10:12:35.000Z,3.77
2022-10-11T10:17:35.000Z,3.06
2022-10-11T10:22:34.000Z,3.62
2022-10-11T10:27:35.000Z,3.62
2022-10-11T10:32:34.000Z,3.2
2022-10-11T10:37:35.000Z,2.63
2022-10-11T10:42:35.000Z,8.21
2022-10-11T10:47:42.000Z,6.35
2022-10-11T10:52:34.000Z,3.85
2022-10-11T10:57:33.000Z,3.83
2022-10-11T11:02:50.000Z,4.16
2022-10-11T11:07:35.000Z,4.14
2022-10-11T11:12:35.000Z,3.76
2022-10-11T11:17:35.000Z,3.76
2022-10-11T11:22:41.000Z,5.96
2022-10-11T11:27:35.000Z,5.78
2022-10-11T11:32:35.000Z,5.25
2022-10-11T11:37:34.000Z,7.68
2022-10-11T11:42:34.000Z,3.66
2022-10-11T11:47:34.000Z,4.07
2022-10-11T11:52:34.000Z,5.13
2022-10-11T11:57:35.000Z,4.53
2022-10-11T12:02:35.000Z,5.52
2022-10-11T12:12:34.000Z,4.08
2022-10-11T12:17:34.000Z,6.62
2022-10-11T12:22:35.000Z,6.72
2022-10-11T12:27:35.000Z,7.85
2022-10-11T12:32:35.000Z,5.28
2022-10-11T12:37:35.000Z,5.85
2022-10-11T12:42:34.000Z,7.94
2022-10-11T12:47:34.000Z,5.33
2022-10-11T12:52:34.000Z,5.51
2022-10-11T12:57:35.000Z,6.49
2022-10-11T13:02:35.000Z,9.8
2022-10-11T13:07:34.000Z,10.61
2022-10-11T13:12:35.000Z,10.61
2022-10-11T13:17:34.000Z,8.02
2022-10-11T13:22:35.000Z,6.84
2022-10-11T13:27:35.000Z,9.01
2022-10-11T13:32:35.000Z,8.41
2022-10-11T13:37:34.000Z,9.85
2022-10-11T13:42:35.000Z,10.95
2022-10-11T13:47:35.000Z,11.61
2022-10-11T13:57:34.000Z,13.38
2022-10-11T14:02:34.000Z,12.96
2022-10-11T14:12:35.000Z,13.05
2022-10-11T14:17:34.000Z,14.58
2022-10-11T14:22:35.000Z,18.61
2022-10-11T14:27:34.000Z,16.78
2022-10-11T14:32:34.000Z,16.78
2022-10-11T14:37:34.000Z,21.9
2022-10-11T14:42:35.000Z,25.12
2022-10-11T14:47:35.000Z,22.01
2022-10-11T14:52:34.000Z,20.7
2022-10-11T14:57:35.000Z,19.32
2022-10-11T15:02:35.000Z,21.85
2022-10-11T15:07:34.000Z,22.16
2022-10-11T15:12:34.000Z,20.8
2022-10-11T15:17:35.000Z,21.61
2022-10-11T15:22:35.000Z,22.07
2022-10-11T15:27:35.000Z,22.83
2022-10-11T15:32:34.000Z,22.93
2022-10-11T15:37:34.000Z,19.53
2022-10-11T15:42:35.000Z,20.74
2022-10-11T15:47:35.000Z,20.74
2022-10-11T15:52:35.000Z,17.92
2022-10-11T15:57:34.000Z,22.94
2022-10-11T16:02:34.000Z,23.95
2022-10-11T16:07:35.000Z,26.55
2022-10-11T16:12:35.000Z,30.94
2022-10-11T16:17:35.000Z,31.28
2022-10-11T16:22:35.000Z,29.93
2022-10-11T16:27:34.000Z,27.1
2022-10-11T16:32:34.000Z,20.92
2022-10-11T16:37:35.000Z,19.32
2022-10-11T16:42:35.000Z,21.04
2022-10-11T16:47:35.000Z,19.39
2022-10-11T16:52:35.000Z,18.89
2022-10-11T17:02:41.000Z,17.79
2022-10-11T17:07:34.000Z,20.03
2022-10-11T17:12:35.000Z,22.18
2022-10-11T17:17:35.000Z,36.86
2022-10-11T17:22:35.000Z,30.85
2022-10-11T17:27:34.000Z,36.59
2022-10-11T17:32:34.000Z,38.8
2022-10-11T17:37:35.000Z,48.12
2022-10-11T17:42:34.000Z,49.86
2022-10-11T17:47:35.000Z,45.1
2022-10-11T17:52:34.000Z,45.39
2022-10-11T17:57:34.000Z,50.29
2022-10-11T18:02:34.000Z,55.29
2022-10-11T18:07:35.000Z,55.29
2022-10-11T18:12:35.000Z,65.13
2022-10-11T18:17:35.000Z,74.41
2022-10-11T18:22:34.000Z,76.6
2022-10-11T18:27:35.000Z,68
2022-10-11T18:32:35.000Z,62.33
2022-10-11T18:42:35.000Z,56.63
2022-10-11T18:47:35.000Z,52.79
2022-10-11T18:52:35.000Z,48.83
2022-10-11T18:57:35.000Z,42.27
2022-10-11T19:02:35.000Z,42.27
2022-10-11T19:12:34.000Z,36.75
2022-10-11T19:17:35.000Z,36.33
2022-10-11T19:22:35.000Z,37.05
2022-10-11T19:27:34.000Z,36.38
2022-10-11T19:32:35.000Z,37.69
2022-10-11T19:37:35.000Z,38.16
2022-10-11T19:42:35.000Z,34.94
2022-10-11T19:47:34.000Z,29.78
2022-10-11T19:52:35.000Z,30.87
2022-10-11T19:57:34.000Z,32.38
2022-10-11T20:02:35.000Z,35.39
2022-10-11T20:07:35.000Z,34.29
2022-10-11T20:12:34.000Z,34.29
2022-10-11T20:17:35.000Z,33.69
2022-10-11T20:22:35.000Z,33.19
2022-10-11T20:27:34.000Z,32.9
2022-10-11T20:32:35.000Z,33.71
2022-10-11T20:37:34.000Z,34.15
2022-10-11T20:42:39.000Z,35.07
2022-10-11T20:47:34.000Z,37.02
2022-10-11T20:52:34.000Z,36.28
2022-10-11T20:57:35.000Z,37.27
2022-10-11T21:02:35.000Z,38.44
2022-10-11T21:07:34.000Z,38.3
2022-10-11T21:12:35.000Z,37.38
2022-10-11T21:17:35.000Z,37.1
2022-10-11T21:22:35.000Z,36.18
2022-10-11T21:27:35.000Z,36.18
2022-10-11T21:37:35.000Z,35.09
2022-10-11T21:42:39.000Z,36.32
2022-10-11T21:47:35.000Z,38.28
2022-10-11T21:52:34.000Z,39.1
2022-10-11T21:57:34.000Z,40.1
2022-10-11T22:02:35.000Z,39.35
2022-10-11T22:07:34.000Z,39.27
2022-10-11T22:12:34.000Z,39.54
2022-10-11T22:17:35.000Z,40.35
2022-10-11T22:22:35.000Z,40.35
2022-10-11T22:27:35.000Z,41.9
2022-10-11T22:32:35.000Z,42.6
2022-10-11T22:37:35.000Z,43.12
2022-10-11T22:42:37.000Z,43.15
2022-10-11T22:47:35.000Z,44.13
2022-10-11T22:52:35.000Z,44.96
2022-10-11T22:57:35.000Z,43.33
2022-10-11T23:02:35.000Z,41.95
2022-10-11T23:07:34.000Z,41.71
2022-10-11T23:12:35.000Z,40.9
2022-10-11T23:17:35.000Z,41.5
2022-10-11T23:22:35.000Z,42.26
2022-10-11T23:27:35.000Z,42.56
2022-10-11T23:32:35.000Z,42.68
2022-10-11T23:37:35.000Z,42.68
2022-10-11T23:42:35.000Z,43.16
2022-10-11T23:47:34.000Z,44.57
2022-10-11T23:52:35.000Z,43.32
2022-10-11T23:57:35.000Z,43.29
